Виджеты


Виджет Фактической Погоды в аэропортах

Название города
Авиационная погода в Сочи
Время Температура (tC) Точка росы (tC) Направление ветра Скорость ветра (узлы) Условия полета
2021-12-06T10:30:00Z 16.0 8.0 120 2 VFR
Copy and paste this code to your website.

Виджет фактической погоды METAR

Название города
Погода METAR
Авиационная погода в Сочи URSS 061030Z 12001MPS 9999 BKN090 16/08 Q1018 R02/010070 R06/010070 NOSIG RMK R06/00000MPS QFE762
Copy and paste this code to your website.